Time;durP1;ratioP1;P1;durP2;ratioP2;P2;SDS_P1;SDS_P2;PMS_P1;PMS_P2;Temp;Humidity;BMP_temperature;BMP_pressure;BME280_temperature;BME280_humidity;BME280_pressure;Samples;Min_cycle;Max_cycle;Signal;HPM_P1;HPM_P2
2021/06/09 00:01:57;;;;;;;;;;;;;;;24.72;57.03;101088.03;5051484;28;1317;-80
2021/06/09 00:04:23;;;;;;;;;;;;;;;24.63;57.92;101087.16;5051209;28;1186;-79
2021/06/09 00:06:48;;;;;;;;;;;;;;;24.69;57.71;101081.22;5053121;28;826;-86
2021/06/09 00:09:13;;;;;;;;;;;;;;;24.66;56.86;101090.09;5051393;28;1871;-88
2021/06/09 00:11:39;;;;;;;;;;;;;;;24.79;57.37;101091.16;5052838;28;842;-90
2021/06/09 00:14:07;;;;;;;;;;;;;;;24.77;57.22;101093.44;5051713;28;1195;-90
2021/06/09 00:16:33;;;;;;;;;;;;;;;24.68;57.13;101084.28;5051099;28;1279;-89
2021/06/09 00:19:25;;;;;;;;;;;;;;;24.66;57.07;101089.28;5050488;28;964;-96
2021/06/09 00:21:51;;;;;;;;;;;;;;;24.59;57.18;101091.66;5052263;28;1260;-79
2021/06/09 00:24:18;;;;;;;;;;;;;;;24.57;57.19;101083.72;5052369;28;976;-79
2021/06/09 00:26:43;;;;;;;;;;;;;;;24.55;57.58;101085.16;5052463;28;900;-79
2021/06/09 00:29:08;;;;;;;;;;;;;;;24.49;57.13;101085.25;5052659;28;1973;-79
2021/06/09 00:31:34;;;;;;;;;;;;;;;24.50;56.99;101088.84;5051202;28;1346;-81
2021/06/09 00:33:59;;;;;;;;;;;;;;;24.62;58.62;101088.28;5052681;28;855;-93
2021/06/09 00:36:24;;;;;;;;;;;;;;;24.65;58.86;101088.47;5051615;28;1241;-87
2021/06/09 00:38:49;;;;;;;;;;;;;;;24.63;58.88;101089.91;5051196;28;1191;-87
2021/06/09 00:41:15;;;;;;;;;;;;;;;24.58;57.48;101090.84;5051120;28;1275;-80
2021/06/09 00:43:40;;;;;;;;;;;;;;;24.50;56.66;101092.41;5045010;28;1622;-80
2021/06/09 00:46:07;;;;;;;;;;;;;;;24.44;56.80;101090.06;5032422;28;815;-79
2021/06/09 00:48:33;;;;;;;;;;;;;;;24.43;56.93;101097.53;5031938;28;1929;-80
2021/06/09 00:51:19;;;;;;;;;;;;;;;24.41;56.89;101101.69;5032309;28;850;-80
2021/06/09 00:53:53;;;;;;;;;;;;;;;24.56;56.67;101095.84;5040802;28;1254;-94
2021/06/09 00:56:19;;;;;;;;;;;;;;;24.66;59.04;101078.28;5052325;28;1320;-81
2021/06/09 00:58:46;;;;;;;;;;;;;;;24.67;56.53;101082.63;5052599;28;909;-79
2021/06/09 01:01:12;;;;;;;;;;;;;;;24.50;56.36;101081.41;5051835;28;825;-79
2021/06/09 01:03:38;;;;;;;;;;;;;;;24.46;56.54;101087.81;5052050;28;790;-79
2021/06/09 01:06:04;;;;;;;;;;;;;;;24.44;56.35;101090.88;5050909;28;1428;-78
2021/06/09 01:08:36;;;;;;;;;;;;;;;24.43;56.28;101085.69;5052278;28;1885;-79
2021/06/09 01:11:02;;;;;;;;;;;;;;;24.43;56.38;101086.50;5052179;28;873;-79
2021/06/09 01:13:29;;;;;;;;;;;;;;;24.40;56.35;101073.34;5052213;28;992;-79
2021/06/09 01:15:55;;;;;;;;;;;;;;;24.41;56.52;101076.91;5051570;28;1334;-78
2021/06/09 01:18:21;;;;;;;;;;;;;;;24.51;56.49;101074.78;5051450;28;1201;-81
2021/06/09 01:20:46;;;;;;;;;;;;;;;24.40;56.24;101086.31;5050541;28;1417;-81
2021/06/09 01:23:12;;;;;;;;;;;;;;;24.35;56.23;101084.50;5050404;28;1169;-82
2021/06/09 01:25:38;;;;;;;;;;;;;;;24.33;56.19;101084.00;5051796;28;822;-82
2021/06/09 01:28:04;;;;;;;;;;;;;;;24.31;56.03;101080.75;5051145;28;1180;-82
2021/06/09 01:30:30;;;;;;;;;;;;;;;24.32;56.01;101085.13;5055160;28;1906;-78
2021/06/09 01:32:55;;;;;;;;;;;;;;;24.30;56.52;101079.91;5055728;28;953;-80
2021/06/09 01:35:21;;;;;;;;;;;;;;;24.28;55.91;101079.41;5054286;28;1282;-80
2021/06/09 01:37:47;;;;;;;;;;;;;;;24.28;56.06;101075.84;5054225;28;1199;-87
2021/06/09 01:40:14;;;;;;;;;;;;;;;24.31;56.22;101078.00;5055688;28;787;-79
2021/06/09 01:42:40;;;;;;;;;;;;;;;24.35;56.23;101073.50;5055272;28;910;-78
2021/06/09 01:45:07;;;;;;;;;;;;;;;24.35;55.89;101080.91;5055039;28;1168;-78
2021/06/09 01:47:32;;;;;;;;;;;;;;;24.32;55.71;101074.91;5055293;28;962;-79
2021/06/09 01:49:58;;;;;;;;;;;;;;;24.31;55.36;101081.56;5053989;28;1878;-79
2021/06/09 01:52:23;;;;;;;;;;;;;;;24.30;55.86;101079.91;5055541;28;877;-79
2021/06/09 01:54:48;;;;;;;;;;;;;;;24.29;55.62;101089.31;5055429;28;937;-79
2021/06/09 01:57:15;;;;;;;;;;;;;;;24.28;55.43;101086.84;5055200;28;819;-79
2021/06/09 01:59:42;;;;;;;;;;;;;;;24.28;55.39;101084.09;5055113;28;867;-79
2021/06/09 02:02:07;;;;;;;;;;;;;;;24.30;55.31;101084.59;5055128;28;882;-79
2021/06/09 02:04:33;;;;;;;;;;;;;;;24.35;55.69;101078.16;5055025;28;850;-84
2021/06/09 02:06:58;;;;;;;;;;;;;;;24.42;56.80;101075.78;5053842;28;1231;-80
2021/06/09 02:09:24;;;;;;;;;;;;;;;24.47;55.82;101079.25;5054471;28;2340;-77
2021/06/09 02:11:50;;;;;;;;;;;;;;;24.53;56.04;101071.72;5054596;28;779;-81
2021/06/09 02:14:18;;;;;;;;;;;;;;;24.48;55.49;101063.53;5054426;28;879;-80
2021/06/09 02:16:45;;;;;;;;;;;;;;;24.46;55.39;101074.84;5054734;28;1121;-81
2021/06/09 02:19:11;;;;;;;;;;;;;;;24.40;55.58;101075.28;5053332;28;1356;-80
2021/06/09 02:21:37;;;;;;;;;;;;;;;24.35;56.28;101080.91;5054754;28;1316;-80
2021/06/09 02:24:04;;;;;;;;;;;;;;;24.33;55.39;101076.53;5053251;28;1234;-81
2021/06/09 02:26:29;;;;;;;;;;;;;;;24.33;55.35;101073.78;5054332;28;1512;-78
2021/06/09 02:28:54;;;;;;;;;;;;;;;24.38;56.06;101077.56;5053482;28;1973;-88
2021/06/09 02:31:20;;;;;;;;;;;;;;;24.60;56.74;101069.31;5053149;28;1602;-81
2021/06/09 02:33:45;;;;;;;;;;;;;;;24.73;57.33;101073.16;5054559;28;861;-82
2021/06/09 02:36:11;;;;;;;;;;;;;;;24.70;57.13;101069.06;5054127;28;994;-82
2021/06/09 02:38:40;;;;;;;;;;;;;;;24.72;57.48;101071.50;5054286;28;917;-80
2021/06/09 02:41:06;;;;;;;;;;;;;;;24.66;57.72;101070.81;5051580;28;929;-78
2021/06/09 02:43:32;;;;;;;;;;;;;;;24.59;57.54;101075.97;5052951;28;799;-78
2021/06/09 02:46:20;;;;;;;;;;;;;;;24.57;57.66;101082.91;5053591;28;846;-77
2021/06/09 02:48:47;;;;;;;;;;;;;;;24.16;53.40;101072.84;5047354;28;2021;-73
2021/06/09 02:51:15;;;;;;;;;;;;;;;22.30;55.25;101080.94;5043291;28;949;-73
2021/06/09 02:53:57;;;;;;;;;;;;;;;22.01;57.00;101078.31;5031898;28;864;-73
2021/06/09 02:56:32;;;;;;;;;;;;;;;22.66;55.43;101085.06;5032089;28;929;-73
2021/06/09 02:59:03;;;;;;;;;;;;;;;22.94;54.51;101081.28;5039813;28;1887;-73
2021/06/09 03:01:36;;;;;;;;;;;;;;;23.03;54.15;101088.84;5031513;28;830;-73
2021/06/09 03:04:20;;;;;;;;;;;;;;;23.06;53.70;101089.06;5042283;28;831;-72
2021/06/09 03:06:49;;;;;;;;;;;;;;;23.05;53.90;101081.13;5050321;28;1207;-73
2021/06/09 03:09:20;;;;;;;;;;;;;;;23.00;53.73;101083.91;5036537;28;1882;-72
2021/06/09 03:11:53;;;;;;;;;;;;;;;23.01;53.83;101089.13;5031640;28;849;-73
2021/06/09 03:17:10;;;;;;;;;;;;;;;23.00;53.56;101086.66;5030112;28;1347;-72
2021/06/09 03:19:38;;;;;;;;;;;;;;;22.92;53.66;101088.19;5039088;28;2109;-73
2021/06/09 03:22:15;;;;;;;;;;;;;;;22.91;54.08;101081.88;5045595;28;1571;-73
2021/06/09 03:24:42;;;;;;;;;;;;;;;22.97;53.99;101087.28;5030154;28;1234;-73
2021/06/09 03:27:11;;;;;;;;;;;;;;;23.02;53.82;101084.47;5042529;28;1283;-73
2021/06/09 03:29:48;;;;;;;;;;;;;;;23.04;54.07;101082.22;5050642;28;1909;-72
2021/06/09 03:32:37;;;;;;;;;;;;;;;23.09;54.10;101082.16;5038418;28;2079;-73
2021/06/09 03:35:20;;;;;;;;;;;;;;;22.18;55.54;101086.03;5036045;28;1800;-73
2021/06/09 03:37:48;;;;;;;;;;;;;;;22.07;56.19;101081.81;5047294;28;835;-73
2021/06/09 03:40:18;;;;;;;;;;;;;;;22.09;56.38;101088.66;5031301;28;1534;-73
2021/06/09 03:42:46;;;;;;;;;;;;;;;22.35;55.78;101085.53;5036952;28;1825;-73
2021/06/09 03:45:13;;;;;;;;;;;;;;;22.23;56.31;101093.38;5036477;28;882;-73
2021/06/09 03:47:39;;;;;;;;;;;;;;;22.43;55.76;101087.59;5050728;28;918;-74
2021/06/09 03:50:05;;;;;;;;;;;;;;;21.81;56.99;101095.03;5050217;28;1935;-74
2021/06/09 03:52:32;;;;;;;;;;;;;;;22.34;56.62;101081.19;5040796;28;817;-73
2021/06/09 03:54:58;;;;;;;;;;;;;;;22.14;56.41;101091.31;5033100;28;2088;-73
2021/06/09 03:57:24;;;;;;;;;;;;;;;22.05;57.10;101078.53;5041652;28;1830;-73
2021/06/09 03:59:50;;;;;;;;;;;;;;;21.84;56.64;101092.53;5039630;28;2015;-73
2021/06/09 04:02:16;;;;;;;;;;;;;;;21.82;56.60;101093.94;5035179;28;885;-73
2021/06/09 04:04:43;;;;;;;;;;;;;;;22.19;55.60;101098.63;5035885;28;2257;-73
2021/06/09 04:07:10;;;;;;;;;;;;;;;21.98;56.22;101098.13;5036997;28;1826;-73
2021/06/09 04:09:38;;;;;;;;;;;;;;;22.11;56.12;101093.81;5041514;28;1878;-73
2021/06/09 04:12:04;;;;;;;;;;;;;;;21.98;56.77;101089.06;5033708;28;2061;-73
2021/06/09 04:14:33;;;;;;;;;;;;;;;22.24;56.18;101095.84;5037847;28;874;-73
2021/06/09 04:17:00;;;;;;;;;;;;;;;22.37;55.83;101085.25;5030073;28;1128;-73
2021/06/09 04:19:26;;;;;;;;;;;;;;;22.20;55.84;101083.00;5032809;28;1885;-73
2021/06/09 04:21:52;;;;;;;;;;;;;;;22.41;55.72;101089.03;5040147;28;1684;-73
2021/06/09 04:24:18;;;;;;;;;;;;;;;22.60;55.42;101094.50;5048075;28;827;-73
2021/06/09 04:26:43;;;;;;;;;;;;;;;22.75;54.82;101094.25;5032515;28;1787;-73
2021/06/09 04:29:09;;;;;;;;;;;;;;;22.44;55.34;101096.69;5045502;28;1983;-73
2021/06/09 04:31:35;;;;;;;;;;;;;;;22.34;55.09;101092.97;5050189;28;894;-72
2021/06/09 04:34:00;;;;;;;;;;;;;;;22.45;54.90;101087.31;5048495;28;2142;-72
2021/06/09 04:36:26;;;;;;;;;;;;;;;22.61;54.58;101087.88;5029979;28;1317;-72
2021/06/09 04:38:52;;;;;;;;;;;;;;;22.37;54.33;101094.28;5047270;28;826;-72
2021/06/09 04:41:18;;;;;;;;;;;;;;;22.29;54.63;101093.03;5050077;28;783;-72
2021/06/09 04:43:44;;;;;;;;;;;;;;;22.22;55.40;101095.31;5039180;28;2184;-72
2021/06/09 04:46:09;;;;;;;;;;;;;;;22.55;54.96;101089.91;5041597;28;1757;-72
2021/06/09 04:48:35;;;;;;;;;;;;;;;22.28;56.32;101090.59;5040536;28;1870;-72
2021/06/09 04:51:01;;;;;;;;;;;;;;;22.22;55.73;101089.00;5037679;28;1599;-72
2021/06/09 04:53:26;;;;;;;;;;;;;;;21.98;56.89;101086.34;5039619;28;2148;-72
2021/06/09 04:55:53;;;;;;;;;;;;;;;21.94;56.91;101089.66;5041015;28;1056;-72
2021/06/09 04:58:19;;;;;;;;;;;;;;;22.33;58.35;101093.25;5035292;28;1935;-78
2021/06/09 05:00:45;;;;;;;;;;;;;;;22.96;57.03;101088.38;5033949;28;1992;-77
2021/06/09 05:03:11;;;;;;;;;;;;;;;23.13;55.79;101092.22;5037529;28;1763;-73
2021/06/09 05:05:37;;;;;;;;;;;;;;;23.13;55.06;101092.22;5043728;28;2042;-75
2021/06/09 05:08:02;;;;;;;;;;;;;;;23.17;54.68;101088.88;5043623;28;2179;-86
2021/06/09 05:10:28;;;;;;;;;;;;;;;23.28;56.16;101082.91;5046023;28;1874;-77
2021/06/09 05:12:59;;;;;;;;;;;;;;;23.45;55.23;101090.53;5034569;28;895;-74
2021/06/09 05:15:27;;;;;;;;;;;;;;;23.61;56.68;101084.72;5034217;28;933;-75
2021/06/09 05:17:52;;;;;;;;;;;;;;;23.68;55.25;101096.13;5033934;28;1322;-72
2021/06/09 05:20:26;;;;;;;;;;;;;;;23.69;55.40;101100.50;5035060;28;962;-78
2021/06/09 05:22:56;;;;;;;;;;;;;;;23.66;54.35;101093.69;5035410;28;827;-82
2021/06/09 05:25:21;;;;;;;;;;;;;;;23.58;54.98;101085.31;5042910;28;1610;-80
2021/06/09 05:27:47;;;;;;;;;;;;;;;23.46;55.80;101083.09;5049746;28;849;-72
2021/06/09 05:30:15;;;;;;;;;;;;;;;23.44;55.69;101082.56;5044615;28;1922;-72
2021/06/09 05:32:40;;;;;;;;;;;;;;;23.44;54.23;101088.06;5053249;28;829;-71
2021/06/09 05:35:06;;;;;;;;;;;;;;;23.35;54.32;101089.91;5034839;28;908;-72
2021/06/09 05:37:33;;;;;;;;;;;;;;;22.94;54.69;101078.53;5046304;28;946;-79
2021/06/09 05:39:59;;;;;;;;;;;;;;;22.76;54.79;101084.91;5054781;28;1017;-78
2021/06/09 05:42:25;;;;;;;;;;;;;;;22.93;54.76;101081.56;5055381;28;792;-78
2021/06/09 05:44:53;;;;;;;;;;;;;;;22.85;54.79;101087.75;5055325;28;949;-80
2021/06/09 05:47:19;;;;;;;;;;;;;;;22.93;54.87;101095.31;5055360;28;841;-78
2021/06/09 05:49:44;;;;;;;;;;;;;;;23.12;55.42;101089.81;5053846;28;1878;-78
2021/06/09 05:52:11;;;;;;;;;;;;;;;23.11;54.85;101102.69;5054875;28;842;-78
2021/06/09 05:54:38;;;;;;;;;;;;;;;23.17;55.18;101094.38;5054649;28;791;-78
2021/06/09 05:57:04;;;;;;;;;;;;;;;23.57;55.81;101103.75;5053201;28;1319;-78
2021/06/09 05:59:29;;;;;;;;;;;;;;;23.61;54.76;101107.53;5054539;28;866;-78
2021/06/09 06:01:55;;;;;;;;;;;;;;;23.70;55.17;101108.47;5053275;28;1176;-77
2021/06/09 06:04:20;;;;;;;;;;;;;;;23.71;55.27;101112.00;5054828;28;879;-77
2021/06/09 06:06:47;;;;;;;;;;;;;;;23.72;54.46;101099.88;5054135;28;881;-78
2021/06/09 06:09:12;;;;;;;;;;;;;;;23.55;54.71;101100.50;5054684;28;1878;-78
2021/06/09 06:11:38;;;;;;;;;;;;;;;23.43;55.04;101103.75;5053509;28;1286;-78
2021/06/09 06:14:05;;;;;;;;;;;;;;;23.61;54.77;101106.72;5054460;28;882;-78
2021/06/09 06:16:31;;;;;;;;;;;;;;;23.68;54.42;101098.88;5053647;28;1328;-78
2021/06/09 06:18:56;;;;;;;;;;;;;;;23.22;54.19;101097.00;5054493;28;863;-78
2021/06/09 06:21:22;;;;;;;;;;;;;;;23.53;54.57;101094.50;5054171;28;826;-78
2021/06/09 06:23:47;;;;;;;;;;;;;;;23.56;54.16;101095.81;5054656;28;811;-78
2021/06/09 06:26:16;;;;;;;;;;;;;;;23.55;54.48;101096.94;5054358;28;942;-78
2021/06/09 06:28:42;;;;;;;;;;;;;;;23.32;52.85;101097.66;5054308;28;1914;-78
2021/06/09 06:31:11;;;;;;;;;;;;;;;23.59;54.43;101095.22;5054127;28;1260;-78
2021/06/09 06:33:36;;;;;;;;;;;;;;;23.36;52.36;101094.28;5051989;28;1723;-77
2021/06/09 06:36:03;;;;;;;;;;;;;;;23.34;53.46;101083.59;5052055;28;1802;-78
2021/06/09 06:38:29;;;;;;;;;;;;;;;23.52;52.61;101085.44;5044520;28;1672;-78
2021/06/09 06:40:54;;;;;;;;;;;;;;;23.57;52.05;101083.72;5032566;28;1329;-78
2021/06/09 06:43:20;;;;;;;;;;;;;;;23.59;52.61;101095.22;5046529;28;1611;-78
2021/06/09 06:45:45;;;;;;;;;;;;;;;23.67;53.06;101084.31;5050668;28;1037;-77
2021/06/09 06:48:10;;;;;;;;;;;;;;;23.48;52.64;101083.59;5033827;28;865;-77
2021/06/09 06:50:37;;;;;;;;;;;;;;;23.58;52.71;101080.63;5033491;28;1866;-77
2021/06/09 06:53:05;;;;;;;;;;;;;;;23.56;52.26;101079.31;5033939;28;1055;-77
2021/06/09 06:55:31;;;;;;;;;;;;;;;23.65;52.52;101081.03;5033705;28;930;-77
2021/06/09 06:57:57;;;;;;;;;;;;;;;23.73;52.55;101077.56;5034088;28;846;-77
2021/06/09 07:00:22;;;;;;;;;;;;;;;23.67;51.46;101080.75;5033652;28;858;-78
2021/06/09 07:02:49;;;;;;;;;;;;;;;23.67;52.93;101076.06;5033334;28;854;-77
2021/06/09 07:05:16;;;;;;;;;;;;;;;23.83;52.59;101076.56;5031909;28;1188;-78
2021/06/09 07:07:42;;;;;;;;;;;;;;;23.89;52.93;101072.59;5033444;28;862;-77
2021/06/09 07:10:08;;;;;;;;;;;;;;;23.81;51.63;101072.50;5032016;28;1945;-78
2021/06/09 07:12:37;;;;;;;;;;;;;;;23.67;52.81;101076.06;5032902;28;1308;-78
2021/06/09 07:15:06;;;;;;;;;;;;;;;23.84;53.64;101080.13;5032184;28;1182;-78
2021/06/09 07:17:33;;;;;;;;;;;;;;;23.92;52.11;101076.66;5033238;28;1146;-77
2021/06/09 07:19:58;;;;;;;;;;;;;;;23.87;51.89;101080.34;5033145;28;878;-78
2021/06/09 07:22:24;;;;;;;;;;;;;;;23.78;52.52;101084.94;5036074;28;1524;-78
2021/06/09 07:24:49;;;;;;;;;;;;;;;23.70;52.42;101082.88;5033176;28;844;-78
2021/06/09 07:27:16;;;;;;;;;;;;;;;23.76;52.96;101078.88;5033097;28;843;-78
2021/06/09 07:29:41;;;;;;;;;;;;;;;23.85;52.83;101082.59;5031745;28;1902;-77
2021/06/09 07:32:07;;;;;;;;;;;;;;;23.96;52.77;101085.91;5033179;28;824;-78
2021/06/09 07:34:32;;;;;;;;;;;;;;;23.97;52.99;101079.31;5050461;28;1690;-78
2021/06/09 07:37:02;;;;;;;;;;;;;;;23.95;52.74;101078.81;5051643;28;1519;-78
2021/06/09 07:39:43;;;;;;;;;;;;;;;23.96;53.25;101077.66;5052797;28;889;-78
2021/06/09 07:42:10;;;;;;;;;;;;;;;24.01;52.66;101072.06;5051872;28;874;-78
2021/06/09 07:44:41;;;;;;;;;;;;;;;24.07;53.66;101070.00;5042634;28;911;-78
2021/06/09 07:47:08;;;;;;;;;;;;;;;24.12;52.78;101069.88;5040577;28;1840;-78
2021/06/09 07:49:34;;;;;;;;;;;;;;;24.01;52.66;101068.50;5039602;28;1930;-78
2021/06/09 07:52:00;;;;;;;;;;;;;;;24.05;52.55;101072.25;5043616;28;1511;-78
2021/06/09 07:54:25;;;;;;;;;;;;;;;24.00;52.13;101067.66;5045155;28;2110;-78
2021/06/09 07:56:51;;;;;;;;;;;;;;;24.04;52.93;101067.88;5032705;28;875;-78
2021/06/09 07:59:18;;;;;;;;;;;;;;;24.06;53.31;101065.63;5035781;28;1653;-77
2021/06/09 08:01:45;;;;;;;;;;;;;;;24.05;52.58;101055.75;5051479;28;1781;-78
2021/06/09 08:04:11;;;;;;;;;;;;;;;24.16;52.70;101059.06;5051966;28;1459;-78
2021/06/09 08:06:36;;;;;;;;;;;;;;;24.11;52.50;101055.31;5052189;28;1744;-78
2021/06/09 08:09:02;;;;;;;;;;;;;;;24.17;52.76;101060.72;5052167;28;1869;-78
2021/06/09 08:11:28;;;;;;;;;;;;;;;24.07;50.88;101064.50;5045571;28;1508;-78
2021/06/09 08:13:53;;;;;;;;;;;;;;;24.00;50.15;101073.16;5041361;28;1700;-78
2021/06/09 08:16:19;;;;;;;;;;;;;;;24.01;51.90;101063.81;5051356;28;1529;-78
2021/06/09 08:18:46;;;;;;;;;;;;;;;24.33;51.36;101068.28;5051836;28;1410;-78
2021/06/09 08:21:13;;;;;;;;;;;;;;;24.78;50.08;101067.50;5052411;28;1427;-78
2021/06/09 08:23:41;;;;;;;;;;;;;;;24.98;48.90;101059.81;5050700;28;1418;-78
2021/06/09 08:26:07;;;;;;;;;;;;;;;24.84;49.34;101071.75;5043506;28;1787;-78
2021/06/09 08:28:36;;;;;;;;;;;;;;;24.90;49.35;101066.91;5052203;28;1206;-78
2021/06/09 08:31:03;;;;;;;;;;;;;;;24.88;48.70;101055.41;5050027;28;1914;-78
2021/06/09 08:33:28;;;;;;;;;;;;;;;24.97;48.35;101053.50;5049013;28;1669;-78
2021/06/09 08:35:54;;;;;;;;;;;;;;;24.84;48.95;101057.16;5047643;28;1504;-78
2021/06/09 08:38:19;;;;;;;;;;;;;;;24.72;49.54;101055.78;5039960;28;1652;-78
2021/06/09 08:40:44;;;;;;;;;;;;;;;24.77;49.92;101063.13;5038755;28;854;-78
2021/06/09 08:43:10;;;;;;;;;;;;;;;24.68;49.69;101056.72;5050764;28;1767;-77
2021/06/09 08:45:36;;;;;;;;;;;;;;;24.69;49.46;101058.38;5050342;28;941;-78
2021/06/09 08:48:02;;;;;;;;;;;;;;;24.72;48.82;101058.53;5031874;28;1342;-77
2021/06/09 08:50:27;;;;;;;;;;;;;;;24.70;48.56;101049.78;5044806;28;1878;-78
2021/06/09 08:52:52;;;;;;;;;;;;;;;24.75;48.50;101048.84;5037694;28;886;-78
2021/06/09 08:55:19;;;;;;;;;;;;;;;24.72;49.15;101054.97;5034454;28;1743;-78
2021/06/09 08:57:45;;;;;;;;;;;;;;;24.69;48.97;101039.91;5051480;28;1060;-77
2021/06/09 09:00:11;;;;;;;;;;;;;;;24.65;49.27;101049.09;5051035;28;831;-79
2021/06/09 09:02:39;;;;;;;;;;;;;;;24.64;49.61;101041.97;5051994;28;928;-80
2021/06/09 09:05:06;;;;;;;;;;;;;;;24.62;49.59;101042.28;5051611;28;960;-77
2021/06/09 09:07:31;;;;;;;;;;;;;;;24.68;49.53;101054.78;5049586;28;1683;-76
2021/06/09 09:09:57;;;;;;;;;;;;;;;24.68;49.82;101054.78;5031421;28;1875;-76
2021/06/09 09:12:22;;;;;;;;;;;;;;;24.68;49.47;101056.72;5029691;28;1176;-77
2021/06/09 09:14:47;;;;;;;;;;;;;;;24.77;48.82;101049.34;5031401;28;1237;-78
2021/06/09 09:17:13;;;;;;;;;;;;;;;24.75;48.49;101054.38;5037184;28;1390;-78
2021/06/09 09:19:42;;;;;;;;;;;;;;;24.68;48.59;101049.28;5052948;28;826;-79
2021/06/09 09:22:09;;;;;;;;;;;;;;;24.71;48.60;101050.63;5050409;28;1207;-79
2021/06/09 09:24:42;;;;;;;;;;;;;;;24.70;48.41;101047.03;5050650;28;1231;-79
2021/06/09 09:27:08;;;;;;;;;;;;;;;24.72;48.72;101043.97;5047661;28;1543;-80
2021/06/09 09:29:34;;;;;;;;;;;;;;;24.67;48.81;101044.91;5030133;28;1910;-78
2021/06/09 09:32:02;;;;;;;;;;;;;;;24.71;49.20;101036.84;5046970;28;1301;-78
2021/06/09 09:34:37;;;;;;;;;;;;;;;24.66;49.39;101031.44;5031486;28;826;-78
2021/06/09 09:37:02;;;;;;;;;;;;;;;24.70;49.25;101037.94;5039961;28;1492;-78
2021/06/09 09:39:29;;;;;;;;;;;;;;;24.73;48.84;101040.09;5042993;28;1838;-78
2021/06/09 09:41:55;;;;;;;;;;;;;;;24.75;48.89;101043.34;5039135;28;2002;-75
2021/06/09 09:44:20;;;;;;;;;;;;;;;24.79;48.71;101033.31;5050209;28;1212;-76
2021/06/09 09:46:56;;;;;;;;;;;;;;;24.81;48.61;101039.31;5050532;28;987;-78
2021/06/09 09:49:22;;;;;;;;;;;;;;;24.80;48.53;101032.16;5052501;28;1967;-78
2021/06/09 09:51:50;;;;;;;;;;;;;;;24.80;48.33;101042.38;5055080;28;887;-78
2021/06/09 09:54:21;;;;;;;;;;;;;;;24.77;48.34;101034.75;5054688;28;935;-76
2021/06/09 09:56:47;;;;;;;;;;;;;;;24.79;48.71;101032.47;5054375;28;1225;-78
2021/06/09 09:59:12;;;;;;;;;;;;;;;24.78;48.26;101025.38;5054316;28;894;-77
2021/06/09 10:01:43;;;;;;;;;;;;;;;24.76;48.38;101024.88;5054554;28;823;-77
2021/06/09 10:04:09;;;;;;;;;;;;;;;24.73;48.50;101026.31;5045451;28;1894;-77
2021/06/09 10:06:40;;;;;;;;;;;;;;;24.77;48.49;101029.22;5040668;28;1695;-78
2021/06/09 10:09:08;;;;;;;;;;;;;;;24.70;48.49;101033.25;5034433;28;1955;-76
2021/06/09 10:11:37;;;;;;;;;;;;;;;24.70;48.43;101030.50;5044702;28;1696;-77
2021/06/09 10:14:13;;;;;;;;;;;;;;;24.69;48.43;101028.06;5035768;28;2082;-75
2021/06/09 10:16:40;;;;;;;;;;;;;;;24.67;48.53;101022.88;5049314;28;1703;-75
2021/06/09 10:19:10;;;;;;;;;;;;;;;24.79;47.84;101026.97;5049791;28;1608;-76
2021/06/09 10:21:42;;;;;;;;;;;;;;;24.83;47.47;101015.03;5052254;28;1543;-76
2021/06/09 10:24:09;;;;;;;;;;;;;;;24.80;46.96;101015.66;5047373;28;1668;-76
2021/06/09 10:26:35;;;;;;;;;;;;;;;24.79;47.06;101005.78;5043629;28;1583;-75
2021/06/09 10:29:03;;;;;;;;;;;;;;;24.79;46.47;100999.44;5051764;28;1906;-76
2021/06/09 10:31:29;;;;;;;;;;;;;;;24.76;46.34;100994.56;5050293;28;1587;-76
2021/06/09 10:33:55;;;;;;;;;;;;;;;24.82;46.74;100983.09;5052164;28;1574;-76
2021/06/09 10:36:21;;;;;;;;;;;;;;;24.84;46.43;100991.03;5052187;28;1518;-76
2021/06/09 10:38:47;;;;;;;;;;;;;;;24.86;45.93;100978.56;5052003;28;1374;-76
2021/06/09 10:41:13;;;;;;;;;;;;;;;24.84;47.21;100980.81;5052443;28;1893;-75
2021/06/09 10:43:40;;;;;;;;;;;;;;;24.96;46.20;100980.22;5052089;28;1430;-75
2021/06/09 10:46:07;;;;;;;;;;;;;;;25.00;44.74;100981.22;5051722;28;1812;-76
2021/06/09 10:48:34;;;;;;;;;;;;;;;25.01;44.13;100973.75;5050672;28;1863;-76
2021/06/09 10:50:59;;;;;;;;;;;;;;;24.96;42.89;100980.22;5048369;28;1941;-75
2021/06/09 10:53:25;;;;;;;;;;;;;;;24.95;42.58;100983.28;5046835;28;1839;-75
2021/06/09 10:55:50;;;;;;;;;;;;;;;24.90;42.71;100979.53;5051777;28;1444;-76
2021/06/09 10:58:15;;;;;;;;;;;;;;;24.92;42.26;100982.78;5052392;28;1671;-76
2021/06/09 11:00:41;;;;;;;;;;;;;;;24.91;41.88;100983.94;5050115;28;3027;-75
2021/06/09 11:03:07;;;;;;;;;;;;;;;24.96;42.79;100982.97;5043349;28;2596;-76
2021/06/09 11:05:35;;;;;;;;;;;;;;;24.91;42.53;100983.09;5045367;28;1497;-75
2021/06/09 11:08:02;;;;;;;;;;;;;;;24.92;42.08;100976.47;5048945;28;2544;-76
2021/06/09 11:10:27;;;;;;;;;;;;;;;24.88;41.71;100973.53;5049813;28;1874;-75
2021/06/09 11:12:52;;;;;;;;;;;;;;;24.91;42.11;100983.94;5051363;28;1652;-75
2021/06/09 11:15:19;;;;;;;;;;;;;;;24.91;42.99;100970.16;5051477;28;1417;-76
2021/06/09 11:17:46;;;;;;;;;;;;;;;24.92;43.68;100968.22;5050591;28;1685;-76
2021/06/09 11:20:26;;;;;;;;;;;;;;;24.92;44.26;100970.97;5052497;28;1438;-76
2021/06/09 11:22:52;;;;;;;;;;;;;;;24.91;45.18;100964.66;5047797;28;2434;-77
2021/06/09 11:25:20;;;;;;;;;;;;;;;24.94;45.21;100971.47;5048974;28;1641;-77
2021/06/09 11:27:54;;;;;;;;;;;;;;;24.92;46.13;100984.75;5051598;28;1439;-77
2021/06/09 11:30:26;;;;;;;;;;;;;;;24.81;47.45;100973.22;5047154;28;1901;-77
2021/06/09 11:32:58;;;;;;;;;;;;;;;24.83;47.83;100981.97;5048547;28;1849;-77
2021/06/09 11:35:41;;;;;;;;;;;;;;;24.87;48.16;100984.88;5036238;28;925;-78
2021/06/09 11:38:13;;;;;;;;;;;;;;;24.84;48.09;100980.00;5041496;28;1719;-77
2021/06/09 11:40:48;;;;;;;;;;;;;;;24.83;48.39;100995.75;5035633;28;866;-77
2021/06/09 11:43:16;;;;;;;;;;;;;;;24.78;48.46;100992.31;5032486;28;871;-77
2021/06/09 11:45:59;;;;;;;;;;;;;;;24.79;48.75;101002.19;5034342;28;1654;-77
2021/06/09 11:48:25;;;;;;;;;;;;;;;24.74;49.46;101007.84;5037630;28;874;-77
2021/06/09 11:50:55;;;;;;;;;;;;;;;24.82;49.72;100996.06;5051971;28;1870;-77
2021/06/09 11:53:34;;;;;;;;;;;;;;;24.74;50.96;101005.88;5052042;28;876;-77
2021/06/09 11:56:19;;;;;;;;;;;;;;;24.66;50.70;100988.19;5039077;28;2652;-77
2021/06/09 11:58:46;;;;;;;;;;;;;;;24.54;50.88;100984.41;5032106;28;1252;-77
2021/06/09 12:01:12;;;;;;;;;;;;;;;24.59;50.58;100990.59;5031793;28;1228;-77
2021/06/09 12:03:39;;;;;;;;;;;;;;;24.61;50.05;100998.53;5031953;28;910;-77
2021/06/09 12:06:11;;;;;;;;;;;;;;;24.65;49.90;100994.84;5032413;28;881;-77
2021/06/09 12:08:37;;;;;;;;;;;;;;;24.62;49.50;101002.91;5031879;28;877;-77
2021/06/09 12:11:02;;;;;;;;;;;;;;;24.65;48.86;101021.53;5032216;28;1869;-77
2021/06/09 12:13:28;;;;;;;;;;;;;;;24.51;48.84;101022.44;5031230;28;861;-77
2021/06/09 12:16:16;;;;;;;;;;;;;;;24.47;48.23;101026.94;5031498;28;1225;-77
2021/06/09 12:18:46;;;;;;;;;;;;;;;24.37;48.48;101031.84;5032025;28;849;-76
2021/06/09 12:21:14;;;;;;;;;;;;;;;24.36;48.77;101028.31;5031988;28;870;-77
2021/06/09 12:23:52;;;;;;;;;;;;;;;24.43;48.28;101039.69;5030398;28;1178;-77
2021/06/09 12:26:17;;;;;;;;;;;;;;;24.41;47.99;101035.63;5030462;28;1539;-78
2021/06/09 12:28:42;;;;;;;;;;;;;;;24.38;48.63;101034.31;5031740;28;832;-77
2021/06/09 12:31:11;;;;;;;;;;;;;;;24.33;49.39;101020.69;5031757;28;1902;-77
2021/06/09 12:33:37;;;;;;;;;;;;;;;24.40;50.31;101018.28;5031781;28;858;-77
2021/06/09 12:36:06;;;;;;;;;;;;;;;24.46;51.30;101008.78;5038189;28;1949;-77
2021/06/09 12:38:31;;;;;;;;;;;;;;;24.43;51.90;101012.16;5071307;28;949;-77
2021/06/09 12:40:56;;;;;;;;;;;;;;;24.34;52.92;100994.75;5071582;28;865;-77
2021/06/09 12:43:24;;;;;;;;;;;;;;;24.35;52.71;101001.06;5071446;28;794;-77
2021/06/09 12:45:50;;;;;;;;;;;;;;;24.24;52.78;100990.31;5071725;28;905;-77
2021/06/09 12:48:17;;;;;;;;;;;;;;;24.23;52.69;100999.72;5070004;28;1198;-77
2021/06/09 12:50:50;;;;;;;;;;;;;;;24.23;52.36;100987.91;5071339;28;1874;-77
2021/06/09 12:53:17;;;;;;;;;;;;;;;24.22;51.90;100992.56;5071232;28;846;-77
2021/06/09 12:55:43;;;;;;;;;;;;;;;24.23;51.81;100987.91;5071289;28;941;-77